Time;durP1;ratioP1;P1;durP2;ratioP2;P2;SDS_P1;SDS_P2;PMS_P1;PMS_P2;Temp;Humidity;BMP_temperature;BMP_pressure;BME280_temperature;BME280_humidity;BME280_pressure;Samples;Min_cycle;Max_cycle;Signal;HPM_P1;HPM_P2
2023/08/27 00:01:12;;;;;;;7.43;4.70;;;;;;;17.33;100.00;96196.97;5112726;28;20529;-64
2023/08/27 00:03:39;;;;;;;8.95;4.60;;;;;;;17.40;100.00;96209.34;5110138;28;20193;-64
2023/08/27 00:06:06;;;;;;;5.18;4.72;;;;;;;17.44;100.00;96212.47;5111353;28;20216;-65
2023/08/27 00:08:33;;;;;;;7.30;5.63;;;;;;;17.45;100.00;96222.16;5111910;28;20201;-67
2023/08/27 00:11:00;;;;;;;9.23;5.22;;;;;;;17.42;100.00;96219.88;5111496;28;20201;-63
2023/08/27 00:13:26;;;;;;;8.85;5.45;;;;;;;17.42;100.00;96211.84;5111297;28;20568;-66
2023/08/27 00:15:54;;;;;;;8.77;5.05;;;;;;;17.39;100.00;96201.56;5111371;28;20247;-64
2023/08/27 00:18:21;;;;;;;6.50;4.55;;;;;;;17.39;100.00;96180.16;5111508;28;20197;-64
2023/08/27 00:20:47;;;;;;;5.32;4.88;;;;;;;17.45;100.00;96168.69;5111168;28;20197;-66
2023/08/27 00:23:13;;;;;;;4.97;4.57;;;;;;;17.46;100.00;96151.63;5111769;28;20209;-65
2023/08/27 00:25:40;;;;;;;5.65;4.93;;;;;;;17.43;100.00;96149.31;5111794;28;20211;-64
2023/08/27 00:28:07;;;;;;;5.55;4.40;;;;;;;17.46;100.00;96138.25;5111046;28;20306;-64
2023/08/27 00:30:34;;;;;;;5.80;4.50;;;;;;;17.42;100.00;96132.50;5111503;28;20208;-67
2023/08/27 00:33:02;;;;;;;4.53;4.03;;;;;;;17.43;100.00;96138.63;5111136;28;20221;-64
2023/08/27 00:35:29;;;;;;;4.82;4.43;;;;;;;17.47;100.00;96142.56;5110729;28;20204;-63
2023/08/27 00:37:56;;;;;;;4.28;3.95;;;;;;;17.45;100.00;96157.16;5111644;28;20208;-64
2023/08/27 00:40:25;;;;;;;6.68;4.13;;;;;;;17.42;100.00;96153.03;5112084;28;20213;-63
2023/08/27 00:42:51;;;;;;;4.70;4.22;;;;;;;17.47;100.00;96155.09;5112061;28;20497;-65
2023/08/27 00:45:18;;;;;;;4.40;3.97;;;;;;;17.46;100.00;96153.47;5112168;28;21359;-65
2023/08/27 00:47:44;;;;;;;5.78;4.20;;;;;;;17.40;100.00;96150.56;5111099;28;20197;-63
2023/08/27 00:50:14;;;;;;;4.47;4.07;;;;;;;17.46;100.00;96166.84;5111051;28;20201;-63
2023/08/27 00:52:41;;;;;;;5.85;4.45;;;;;;;17.46;100.00;96159.66;5112077;28;20232;-63
2023/08/27 00:55:08;;;;;;;9.02;4.35;;;;;;;17.44;100.00;96156.34;5111543;28;20212;-62
2023/08/27 00:57:36;;;;;;;5.38;4.18;;;;;;;17.49;100.00;96163.75;5112288;28;20212;-64
2023/08/27 01:00:03;;;;;;;7.35;3.75;;;;;;;17.50;100.00;96176.91;5111435;28;20231;-64
2023/08/27 01:02:29;;;;;;;6.00;4.10;;;;;;;17.48;100.00;96186.16;5111443;28;20212;-63
2023/08/27 01:04:55;;;;;;;5.47;4.38;;;;;;;17.47;100.00;96184.50;5110974;28;20283;-64
2023/08/27 01:07:31;;;;;;;7.05;4.40;;;;;;;17.40;100.00;96179.13;5111649;28;20200;-65
2023/08/27 01:10:02;;;;;;;4.30;3.80;;;;;;;17.40;100.00;96190.66;5114120;28;20735;-63
2023/08/27 01:12:33;;;;;;;4.80;4.35;;;;;;;17.39;100.00;96190.88;5097794;28;20189;-64
2023/08/27 01:15:02;;;;;;;7.13;4.75;;;;;;;17.32;100.00;96180.09;5115308;28;20196;-65
2023/08/27 01:17:29;;;;;;;5.72;4.55;;;;;;;17.36;100.00;96175.19;5114782;28;20288;-64
2023/08/27 01:19:55;;;;;;;8.52;4.97;;;;;;;17.30;100.00;96170.63;5115020;28;20201;-63
2023/08/27 01:22:23;;;;;;;4.97;4.35;;;;;;;17.31;100.00;96166.94;5115787;28;20268;-64
2023/08/27 01:24:50;;;;;;;4.97;4.57;;;;;;;17.28;100.00;96164.69;5115085;28;20643;-63
2023/08/27 01:27:22;;;;;;;5.00;4.60;;;;;;;17.20;100.00;96175.50;5114930;28;20251;-63
2023/08/27 01:30:01;;;;;;;5.05;4.55;;;;;;;17.17;100.00;96194.59;5115222;28;20204;-66
2023/08/27 01:32:31;;;;;;;4.57;4.18;;;;;;;17.22;100.00;96198.34;5115510;28;20211;-63
2023/08/27 01:34:58;;;;;;;6.03;4.03;;;;;;;17.25;100.00;96205.97;5115309;28;20193;-63
2023/08/27 01:37:25;;;;;;;5.60;4.88;;;;;;;17.28;100.00;96223.47;5114944;28;20668;-65
2023/08/27 01:39:58;;;;;;;4.70;4.30;;;;;;;17.28;100.00;96239.50;5114412;28;20213;-63
2023/08/27 01:42:24;;;;;;;4.97;4.50;;;;;;;17.27;100.00;96240.53;5114728;28;20675;-63
2023/08/27 01:44:52;;;;;;;6.50;5.40;;;;;;;17.25;100.00;96256.72;5115023;28;20209;-64
2023/08/27 01:47:18;;;;;;;6.43;5.60;;;;;;;17.25;100.00;96267.41;5114750;28;20205;-63
2023/08/27 01:49:45;;;;;;;5.85;5.35;;;;;;;17.28;100.00;96285.78;5122238;28;20193;-65
2023/08/27 01:52:12;;;;;;;6.30;5.70;;;;;;;17.25;100.00;96275.44;5125044;28;20205;-67
2023/08/27 01:54:39;;;;;;;6.35;5.75;;;;;;;17.23;100.00;96274.00;5126838;28;20224;-65
2023/08/27 01:57:07;;;;;;;6.53;5.93;;;;;;;17.17;100.00;96272.09;5116248;28;20656;-63
2023/08/27 01:59:34;;;;;;;6.15;5.60;;;;;;;17.20;100.00;96271.72;5115187;28;20605;-64
2023/08/27 02:02:00;;;;;;;6.05;5.60;;;;;;;17.21;100.00;96260.00;5117011;28;20205;-66
2023/08/27 02:04:28;;;;;;;5.13;4.72;;;;;;;17.16;100.00;96259.75;5118520;28;20201;-65
2023/08/27 02:06:55;;;;;;;5.50;4.90;;;;;;;17.15;100.00;96279.47;5116734;28;20209;-64
2023/08/27 02:09:23;;;;;;;4.68;4.20;;;;;;;17.15;100.00;96279.47;5115907;28;20220;-64
2023/08/27 02:11:51;;;;;;;4.90;4.38;;;;;;;17.14;100.00;96267.16;5115017;28;20201;-64
2023/08/27 02:14:17;;;;;;;4.22;3.83;;;;;;;17.15;100.00;96250.91;5114529;28;20231;-65
2023/08/27 02:16:44;;;;;;;3.20;3.00;;;;;;;17.15;100.00;96252.75;5115169;28;20197;-64
2023/08/27 02:19:10;;;;;;;6.38;3.17;;;;;;;17.16;100.00;96243.72;5114688;28;20532;-63
2023/08/27 02:21:37;;;;;;;3.03;2.83;;;;;;;17.20;100.00;96240.47;5114838;28;20215;-65
2023/08/27 02:24:04;;;;;;;3.80;3.05;;;;;;;17.21;100.00;96235.97;5114945;28;20284;-66
2023/08/27 02:26:30;;;;;;;3.47;3.17;;;;;;;17.23;100.00;96233.91;5114563;28;20241;-65
2023/08/27 02:28:59;;;;;;;3.20;3.00;;;;;;;17.24;100.00;96240.91;5114995;28;20221;-64
2023/08/27 02:31:26;;;;;;;5.18;3.10;;;;;;;17.27;100.00;96240.53;5115143;28;20205;-65
2023/08/27 02:33:52;;;;;;;3.85;3.45;;;;;;;17.25;100.00;96242.56;5114500;28;20331;-66
2023/08/27 02:36:19;;;;;;;3.65;3.45;;;;;;;17.24;100.00;96248.94;5113923;28;20203;-64
2023/08/27 02:38:46;;;;;;;4.05;3.72;;;;;;;17.24;100.00;96232.88;5115016;28;20199;-65
2023/08/27 02:41:13;;;;;;;3.40;3.20;;;;;;;17.24;100.00;96233.72;5114566;28;20205;-65
2023/08/27 02:43:39;;;;;;;3.60;3.30;;;;;;;17.20;100.00;96228.94;5114496;28;20193;-64
2023/08/27 02:46:07;;;;;;;3.35;3.15;;;;;;;17.16;100.00;96227.69;5114019;28;20201;-65
2023/08/27 02:48:34;;;;;;;3.70;3.50;;;;;;;17.13;100.00;96233.41;5113980;28;20220;-65
2023/08/27 02:51:00;;;;;;;3.20;3.00;;;;;;;17.16;100.00;96233.03;5113079;28;20217;-65
2023/08/27 02:53:27;;;;;;;3.83;3.00;;;;;;;17.13;100.00;96223.56;5113543;28;20688;-64
2023/08/27 02:55:53;;;;;;;4.80;4.35;;;;;;;17.10;100.00;96223.13;5113998;28;20192;-65
2023/08/27 02:58:20;;;;;;;4.82;4.18;;;;;;;17.12;100.00;96221.06;5114247;28;20212;-67
2023/08/27 03:00:47;;;;;;;3.50;3.20;;;;;;;17.13;100.00;96214.72;5114293;28;20212;-65
2023/08/27 03:03:15;;;;;;;2.92;2.63;;;;;;;17.14;100.00;96208.38;5114121;28;20194;-64
2023/08/27 03:05:43;;;;;;;3.00;2.80;;;;;;;17.15;100.00;96216.16;5113754;28;20223;-65
2023/08/27 03:08:10;;;;;;;3.20;2.90;;;;;;;17.18;100.00;96217.66;5114079;28;20279;-63
2023/08/27 03:10:38;;;;;;;3.03;2.70;;;;;;;17.12;100.00;96205.88;5113803;28;20521;-63
2023/08/27 03:13:04;;;;;;;6.30;2.90;;;;;;;17.13;100.00;96202.19;5113846;28;20209;-66
2023/08/27 03:15:31;;;;;;;3.13;2.50;;;;;;;17.11;100.00;96198.06;5113976;28;20205;-64
2023/08/27 03:17:58;;;;;;;2.67;2.47;;;;;;;17.11;100.00;96200.75;5113558;28;20193;-66
2023/08/27 03:20:26;;;;;;;3.13;2.80;;;;;;;17.12;100.00;96191.69;5114122;28;20239;-64
2023/08/27 03:22:55;;;;;;;2.58;2.38;;;;;;;17.09;100.00;96178.72;5112994;28;20227;-63
2023/08/27 03:25:21;;;;;;;2.67;2.47;;;;;;;17.05;100.00;96183.63;5113428;28;20626;-64
2023/08/27 03:27:48;;;;;;;2.38;2.17;;;;;;;17.06;100.00;96184.44;5113339;28;20233;-63
2023/08/27 03:30:15;;;;;;;2.40;2.20;;;;;;;17.04;100.00;96181.16;5113722;28;20212;-63
2023/08/27 03:32:41;;;;;;;2.33;2.13;;;;;;;17.00;100.00;96182.56;5112776;28;20201;-64
2023/08/27 03:35:08;;;;;;;2.05;1.95;;;;;;;17.02;100.00;96177.84;5112593;28;20232;-65
2023/08/27 03:37:36;;;;;;;2.30;2.10;;;;;;;16.95;100.00;96182.31;5113170;28;20646;-64
2023/08/27 03:40:03;;;;;;;2.35;2.15;;;;;;;16.99;100.00;96168.38;5112515;28;21446;-64
2023/08/27 03:42:29;;;;;;;2.13;2.00;;;;;;;16.82;100.00;96141.13;5113164;28;20201;-64
2023/08/27 03:44:57;;;;;;;1.83;1.73;;;;;;;16.79;100.00;96133.50;5113396;28;20546;-64
2023/08/27 03:47:23;;;;;;;2.67;2.10;;;;;;;16.76;100.00;96125.88;5112589;28;20669;-67
2023/08/27 03:49:50;;;;;;;3.00;2.08;;;;;;;16.77;100.00;96122.19;5113668;28;20615;-62
2023/08/27 03:52:16;;;;;;;2.10;1.90;;;;;;;16.73;100.00;96115.59;5114095;28;20224;-64
2023/08/27 03:54:44;;;;;;;1.95;1.85;;;;;;;16.77;100.00;96122.19;5119006;28;20578;-66
2023/08/27 03:57:11;;;;;;;2.10;2.00;;;;;;;16.75;100.00;96128.75;5120254;28;20209;-64
2023/08/27 03:59:37;;;;;;;1.83;1.73;;;;;;;16.65;100.00;96118.38;5123880;28;20202;-65
2023/08/27 04:02:04;;;;;;;3.90;1.98;;;;;;;16.62;100.00;96113.44;5123621;28;20197;-64
2023/08/27 04:04:32;;;;;;;4.68;2.33;;;;;;;16.58;100.00;96117.50;5118368;28;20205;-67
2023/08/27 04:07:00;;;;;;;3.05;2.40;;;;;;;16.53;100.00;96122.59;5116599;28;20327;-65
2023/08/27 04:09:27;;;;;;;2.53;1.88;;;;;;;16.54;100.00;96121.56;5115760;28;20205;-64
2023/08/27 04:11:55;;;;;;;3.35;2.25;;;;;;;16.52;100.00;96120.09;5119291;28;20593;-64
2023/08/27 04:14:21;;;;;;;2.75;1.90;;;;;;;16.46;100.00;96119.03;5118928;28;20518;-64
2023/08/27 04:16:48;;;;;;;2.22;1.98;;;;;;;16.48;100.00;96122.31;5118999;28;20208;-67
2023/08/27 04:19:17;;;;;;;2.63;2.15;;;;;;;16.45;100.00;96128.03;5115957;28;20202;-63
2023/08/27 04:21:43;;;;;;;4.38;2.05;;;;;;;16.42;100.00;96133.78;5112260;28;20197;-65
2023/08/27 04:24:10;;;;;;;2.88;2.03;;;;;;;16.33;100.00;96135.72;5112232;28;20220;-64
2023/08/27 04:26:37;;;;;;;2.75;2.42;;;;;;;16.38;100.00;96119.97;5111561;28;20248;-65
2023/08/27 04:29:05;;;;;;;3.15;2.42;;;;;;;16.40;100.00;96114.47;5112414;28;20204;-64
2023/08/27 04:31:32;;;;;;;3.25;2.30;;;;;;;16.35;100.00;96099.03;5093653;28;20576;-63
2023/08/27 04:33:58;;;;;;;2.45;1.73;;;;;;;16.35;100.00;96108.88;5111856;28;20229;-65
2023/08/27 04:36:25;;;;;;;3.55;2.00;;;;;;;16.33;100.00;96108.25;5112311;28;20212;-66
2023/08/27 04:38:51;;;;;;;1.95;1.85;;;;;;;16.26;100.00;96104.69;5112269;28;20201;-63
2023/08/27 04:41:17;;;;;;;3.55;1.83;;;;;;;16.15;100.00;96111.38;5112608;28;20205;-66
2023/08/27 04:43:44;;;;;;;5.03;2.25;;;;;;;16.17;100.00;96095.16;5111079;28;20585;-65
2023/08/27 04:46:12;;;;;;;2.03;1.92;;;;;;;16.24;100.00;96104.03;5111880;28;20205;-64
2023/08/27 04:48:38;;;;;;;4.07;2.40;;;;;;;16.20;100.00;96116.09;5112059;28;20528;-65
2023/08/27 04:51:05;;;;;;;4.85;2.10;;;;;;;16.20;100.00;96118.78;5111805;28;20598;-63
2023/08/27 04:53:31;;;;;;;2.88;1.95;;;;;;;16.08;100.00;96128.31;5111884;28;20204;-66
2023/08/27 04:55:58;;;;;;;1.85;1.70;;;;;;;16.05;100.00;96134.03;5111912;28;20216;-64
2023/08/27 04:58:24;;;;;;;3.33;1.95;;;;;;;16.07;100.00;96137.31;5111914;28;20205;-63
2023/08/27 05:00:52;;;;;;;2.92;2.40;;;;;;;16.00;100.00;96123.91;5112253;28;20197;-65
2023/08/27 05:03:20;;;;;;;2.65;1.80;;;;;;;15.95;100.00;96126.31;5112182;28;20210;-67
2023/08/27 05:05:47;;;;;;;3.67;1.73;;;;;;;16.00;100.00;96101.75;5116300;28;20197;-64
2023/08/27 05:08:13;;;;;;;2.00;1.90;;;;;;;15.98;100.00;96101.13;5116671;28;21206;-65
2023/08/27 05:10:39;;;;;;;1.73;1.63;;;;;;;16.01;100.00;96103.41;5117790;28;20210;-67
2023/08/27 05:13:06;;;;;;;3.75;1.85;;;;;;;16.06;100.00;96095.66;5117450;28;20576;-66
2023/08/27 05:15:33;;;;;;;3.10;2.05;;;;;;;16.10;100.00;96086.25;5118745;28;20656;-66
2023/08/27 05:17:59;;;;;;;4.32;2.20;;;;;;;16.20;100.00;96073.41;5118862;28;20229;-66
2023/08/27 05:20:27;;;;;;;2.10;2.00;;;;;;;16.22;100.00;96058.91;5117642;28;20237;-66
2023/08/27 05:22:53;;;;;;;2.17;1.98;;;;;;;16.29;100.00;96066.94;5117541;28;20228;-64
2023/08/27 05:25:20;;;;;;;4.18;2.55;;;;;;;16.30;100.00;96068.59;5118220;28;20208;-64
2023/08/27 05:27:47;;;;;;;4.50;2.33;;;;;;;16.34;100.00;96067.19;5116389;28;20244;-64
2023/08/27 05:30:14;;;;;;;2.00;1.90;;;;;;;16.30;100.00;96069.41;5117078;28;20212;-65
2023/08/27 05:32:41;;;;;;;2.17;1.88;;;;;;;16.36;100.00;96086.50;5117691;28;20208;-66
2023/08/27 05:35:11;;;;;;;2.00;1.85;;;;;;;16.41;100.00;96094.75;5115015;28;20308;-63
2023/08/27 05:37:39;;;;;;;2.25;1.70;;;;;;;16.45;100.00;96096.03;5112008;28;20213;-67
2023/08/27 05:40:08;;;;;;;2.78;2.10;;;;;;;16.32;100.00;96102.09;5111537;28;20552;-65
2023/08/27 05:42:35;;;;;;;1.95;1.85;;;;;;;16.43;100.00;96106.06;5112074;28;20205;-65
2023/08/27 05:45:03;;;;;;;2.00;1.80;;;;;;;16.50;100.00;96109.63;5111059;28;20208;-64
2023/08/27 05:47:29;;;;;;;2.00;1.88;;;;;;;16.54;100.00;96110.91;5111183;28;20205;-65
2023/08/27 05:49:56;;;;;;;2.25;1.67;;;;;;;16.51;100.00;96105.91;5110420;28;20205;-67
2023/08/27 05:52:22;;;;;;;1.77;1.67;;;;;;;16.51;100.00;96111.25;5110890;28;20224;-63
2023/08/27 05:54:52;;;;;;;3.08;1.63;;;;;;;16.57;100.00;96107.88;5111843;28;20236;-64
2023/08/27 05:57:18;;;;;;;2.13;1.88;;;;;;;16.57;100.00;96105.19;5115797;28;20197;-64
2023/08/27 05:59:45;;;;;;;1.73;1.63;;;;;;;16.60;100.00;96093.31;5115301;28;20213;-64
2023/08/27 06:02:13;;;;;;;1.67;1.58;;;;;;;16.63;100.00;96093.75;5129076;28;20217;-64
2023/08/27 06:04:40;;;;;;;1.80;1.70;;;;;;;16.58;100.00;96080.13;5132188;28;20201;-67
2023/08/27 06:07:07;;;;;;;3.15;1.70;;;;;;;16.73;100.00;96088.88;5136359;28;20204;-64
2023/08/27 06:09:35;;;;;;;2.13;2.03;;;;;;;16.77;100.00;96100.81;5115928;28;20219;-64
2023/08/27 06:12:03;;;;;;;2.83;1.75;;;;;;;16.79;100.00;96098.78;5114651;28;20208;-64
2023/08/27 06:14:30;;;;;;;2.30;2.10;;;;;;;16.82;100.00;96098.41;5113866;28;20225;-67
2023/08/27 06:16:56;;;;;;;1.60;1.50;;;;;;;16.77;100.00;96106.16;5114312;28;20193;-63
2023/08/27 06:19:23;;;;;;;2.90;2.10;;;;;;;16.75;100.00;96097.53;5114595;28;20205;-65
2023/08/27 06:21:49;;;;;;;1.98;1.45;;;;;;;16.83;100.00;96094.69;5114514;28;20212;-64
2023/08/27 06:24:16;;;;;;;2.13;1.77;;;;;;;16.91;100.00;96091.88;5114670;28;20197;-63
2023/08/27 06:26:42;;;;;;;1.88;1.77;;;;;;;16.98;100.00;96085.75;5114523;28;20240;-64
2023/08/27 06:29:10;;;;;;;2.20;1.77;;;;;;;17.03;100.00;96080.66;5114328;28;20266;-64
2023/08/27 06:31:36;;;;;;;1.63;1.52;;;;;;;16.99;100.00;96082.06;5114440;28;20243;-64
2023/08/27 06:34:03;;;;;;;2.30;2.10;;;;;;;17.03;100.00;96088.69;5114024;28;20216;-64
2023/08/27 06:36:29;;;;;;;1.73;1.63;;;;;;;17.09;100.00;96087.88;5113589;28;20213;-64
2023/08/27 06:38:56;;;;;;;2.38;1.60;;;;;;;17.09;100.00;96066.50;5114488;28;20216;-64
2023/08/27 06:41:23;;;;;;;1.90;1.70;;;;;;;17.05;100.00;96070.59;5096524;28;20205;-64
2023/08/27 06:43:49;;;;;;;1.75;1.65;;;;;;;17.14;100.00;96090.81;5114875;28;20224;-64
2023/08/27 06:46:17;;;;;;;2.25;1.73;;;;;;;17.16;100.00;96108.28;5114674;28;20272;-64
2023/08/27 06:48:44;;;;;;;3.28;1.80;;;;;;;17.18;100.00;96124.91;5114887;28;20220;-64
2023/08/27 06:51:11;;;;;;;2.88;1.63;;;;;;;17.20;100.00;96132.75;5114419;28;20220;-65
2023/08/27 06:53:37;;;;;;;1.90;1.80;;;;;;;17.21;100.00;96140.59;5114196;28;20201;-64
2023/08/27 06:56:04;;;;;;;2.30;2.10;;;;;;;17.21;100.00;96134.41;5114108;28;20212;-64
2023/08/27 06:58:33;;;;;;;1.30;1.20;;;;;;;17.22;100.00;96141.38;5114634;28;20308;-63
2023/08/27 07:01:04;;;;;;;4.20;1.80;;;;;;;17.15;100.00;96136.00;5114920;28;20299;-65
2023/08/27 07:03:32;;;;;;;1.77;1.60;;;;;;;17.09;100.00;96122.59;5118321;28;20216;-64
2023/08/27 07:06:01;;;;;;;3.58;1.33;;;;;;;17.14;100.00;96126.38;5116172;28;20212;-65
2023/08/27 07:08:31;;;;;;;2.70;1.30;;;;;;;17.16;100.00;96120.81;5115039;28;20546;-63
2023/08/27 07:10:57;;;;;;;1.58;1.48;;;;;;;17.16;100.00;96123.47;5116580;28;20209;-66
2023/08/27 07:13:23;;;;;;;4.05;1.73;;;;;;;17.15;100.00;96121.81;5115346;28;20536;-64
2023/08/27 07:15:51;;;;;;;1.90;1.80;;;;;;;17.18;100.00;96130.25;5116043;28;20533;-64
2023/08/27 07:18:18;;;;;;;1.98;1.88;;;;;;;17.31;100.00;96132.22;5117795;28;20224;-65
2023/08/27 07:20:48;;;;;;;1.95;1.85;;;;;;;17.37;100.00;96120.72;5118266;28;20201;-65
2023/08/27 07:23:16;;;;;;;1.85;1.75;;;;;;;17.36;100.00;96124.41;5119106;28;20697;-65
2023/08/27 07:25:43;;;;;;;2.28;1.33;;;;;;;17.43;100.00;96128.75;5116345;28;20644;-64
2023/08/27 07:28:19;;;;;;;1.70;1.60;;;;;;;17.39;100.00;96124.03;5123278;28;20700;-61
2023/08/27 07:30:45;;;;;;;1.60;1.50;;;;;;;17.39;100.00;96121.38;5105245;28;20198;-64
2023/08/27 07:33:13;;;;;;;1.85;1.25;;;;;;;17.46;100.00;96122.22;5114229;28;20205;-63
2023/08/27 07:35:39;;;;;;;2.10;1.80;;;;;;;17.59;100.00;96130.31;5115923;28;20312;-64
2023/08/27 07:38:07;;;;;;;3.08;1.80;;;;;;;17.60;100.00;96144.53;5114322;28;20590;-65
2023/08/27 07:40:35;;;;;;;3.10;2.03;;;;;;;17.63;100.00;96139.59;5112495;28;21438;-64
2023/08/27 07:43:02;;;;;;;1.90;1.73;;;;;;;17.65;100.00;96139.38;5113229;28;20209;-65
2023/08/27 07:45:29;;;;;;;3.47;1.25;;;;;;;17.62;100.00;96140.63;5112384;28;20212;-64
2023/08/27 07:47:55;;;;;;;2.50;1.77;;;;;;;17.81;100.00;96144.41;5113182;28;20201;-64
2023/08/27 07:50:23;;;;;;;1.85;1.75;;;;;;;17.86;100.00;96139.28;5112678;28;20201;-66
2023/08/27 07:52:50;;;;;;;1.90;1.80;;;;;;;17.91;100.00;96150.22;5113612;28;20201;-63
2023/08/27 07:55:18;;;;;;;2.08;1.98;;;;;;;17.87;100.00;96151.63;5112595;28;20245;-63
2023/08/27 07:57:45;;;;;;;2.47;1.77;;;;;;;17.81;100.00;96147.91;5113057;28;20565;-63
2023/08/27 08:00:14;;;;;;;2.30;2.05;;;;;;;17.92;100.00;96152.66;5112658;28;20197;-66
2023/08/27 08:02:41;;;;;;;2.28;2.13;;;;;;;18.00;100.00;96161.53;5112819;28;20234;-66
2023/08/27 08:05:08;;;;;;;2.17;1.50;;;;;;;17.98;100.00;96155.56;5093900;28;20284;-65
2023/08/27 08:07:35;;;;;;;1.67;1.58;;;;;;;18.01;100.00;96155.16;5112442;28;20601;-65
2023/08/27 08:10:01;;;;;;;2.80;1.98;;;;;;;18.09;100.00;96152.31;5112410;28;20240;-65
2023/08/27 08:12:29;;;;;;;1.70;1.60;;;;;;;18.14;100.00;96157.91;5112690;28;20216;-65
2023/08/27 08:14:56;;;;;;;1.45;1.40;;;;;;;18.16;100.00;96155.84;5111038;28;20232;-64
2023/08/27 08:17:22;;;;;;;2.05;1.92;;;;;;;18.10;100.00;96136.09;5112815;28;20197;-63
2023/08/27 08:19:50;;;;;;;2.10;1.90;;;;;;;18.20;100.00;96133.00;5111978;28;20193;-65
2023/08/27 08:22:17;;;;;;;3.33;1.65;;;;;;;18.26;100.00;96114.28;5112579;28;20267;-65
2023/08/27 08:24:43;;;;;;;1.90;1.65;;;;;;;18.38;100.00;96117.19;5111926;28;20209;-64
2023/08/27 08:27:11;;;;;;;2.85;1.77;;;;;;;18.50;100.00;96115.53;5112508;28;20543;-65
2023/08/27 08:29:39;;;;;;;1.23;1.13;;;;;;;18.57;100.00;96126.28;5112856;28;20201;-65
2023/08/27 08:32:06;;;;;;;2.00;1.50;;;;;;;18.54;100.00;96132.88;5111954;28;20229;-65
2023/08/27 08:34:33;;;;;;;1.48;1.38;;;;;;;18.47;100.00;96129.34;5112406;28;20232;-68
2023/08/27 08:37:01;;;;;;;2.25;1.40;;;;;;;18.51;100.00;96130.63;5111688;28;20204;-64
2023/08/27 08:39:28;;;;;;;3.08;1.55;;;;;;;18.59;100.00;96134.94;5112578;28;20634;-65
2023/08/27 08:42:03;;;;;;;1.77;1.40;;;;;;;18.57;100.00;96129.78;5113311;28;20205;-64
2023/08/27 08:44:37;;;;;;;1.70;1.52;;;;;;;18.60;100.00;96128.56;5112986;28;20200;-65
2023/08/27 08:47:09;;;;;;;1.88;1.50;;;;;;;18.59;100.00;96132.28;5096802;28;20259;-64
2023/08/27 08:49:40;;;;;;;2.50;1.77;;;;;;;18.59;100.00;96125.06;5113544;28;20197;-66
2023/08/27 08:52:09;;;;;;;2.35;1.30;;;;;;;18.57;100.00;96128.97;5112939;28;20595;-66
2023/08/27 08:54:38;;;;;;;2.90;1.35;;;;;;;18.61;100.00;96130.19;5112168;28;20205;-64
2023/08/27 08:57:05;;;;;;;3.45;3.15;;;;;;;18.59;100.00;96119.72;5093992;28;20556;-64
2023/08/27 08:59:33;;;;;;;3.55;2.50;;;;;;;18.57;100.00;96129.78;5094378;28;20510;-64
2023/08/27 09:02:00;;;;;;;2.10;1.90;;;;;;;18.51;100.00;96133.28;5113019;28;20197;-64
2023/08/27 09:04:27;;;;;;;2.08;1.70;;;;;;;18.34;100.00;96129.31;5113314;28;20339;-66
2023/08/27 09:06:54;;;;;;;1.35;1.25;;;;;;;18.33;100.00;96143.72;5111990;28;20189;-66
2023/08/27 09:09:21;;;;;;;3.63;1.30;;;;;;;18.22;100.00;96130.94;5112191;28;20205;-65
2023/08/27 09:11:49;;;;;;;1.38;1.27;;;;;;;18.17;100.00;96122.72;5112748;28;20201;-68
2023/08/27 09:14:17;;;;;;;5.18;1.80;;;;;;;18.17;100.00;96126.22;5112380;28;20193;-66
2023/08/27 09:16:43;;;;;;;2.60;1.65;;;;;;;18.22;100.00;96122.91;5112998;28;20649;-64
2023/08/27 09:19:12;;;;;;;3.08;1.60;;;;;;;18.34;100.00;96105.22;5112579;28;20211;-65
2023/08/27 09:21:41;;;;;;;2.00;1.52;;;;;;;18.45;100.00;96093.09;5113938;28;20258;-65
2023/08/27 09:24:08;;;;;;;1.80;1.70;;;;;;;18.56;100.00;96096.03;5115345;28;20220;-64
2023/08/27 09:26:38;;;;;;;1.58;1.48;;;;;;;18.68;100.00;96091.69;5112904;28;20237;-67
2023/08/27 09:29:05;;;;;;;1.80;1.38;;;;;;;18.86;100.00;96086.53;5095339;28;20194;-67
2023/08/27 09:31:38;;;;;;;1.60;1.50;;;;;;;18.94;100.00;96084.66;5119899;28;20265;-64
2023/08/27 09:34:06;;;;;;;3.22;1.55;;;;;;;19.08;100.00;96087.09;5117386;28;20205;-64
2023/08/27 09:36:37;;;;;;;1.70;1.40;;;;;;;19.25;100.00;96087.47;5116448;28;20567;-65
2023/08/27 09:39:10;;;;;;;1.40;1.30;;;;;;;19.35;100.00;96093.22;5115531;28;20201;-63
2023/08/27 09:41:38;;;;;;;1.65;1.27;;;;;;;19.48;100.00;96089.72;5116610;28;20261;-65
2023/08/27 09:44:07;;;;;;;1.30;1.30;;;;;;;19.59;100.00;96095.22;5116464;28;20212;-65
2023/08/27 09:46:36;;;;;;;1.52;1.40;;;;;;;19.61;100.00;96093.16;5116049;28;20217;-66
2023/08/27 09:49:04;;;;;;;1.95;1.70;;;;;;;19.75;100.00;96084.03;5116215;28;20242;-66
2023/08/27 09:51:33;;;;;;;2.05;1.30;;;;;;;19.74;100.00;96093.09;5097192;28;20240;-66
2023/08/27 09:54:01;;;;;;;1.45;1.35;;;;;;;19.74;100.00;96087.75;5116231;28;20201;-64
2023/08/27 09:56:29;;;;;;;1.10;1.10;;;;;;;19.82;100.00;96098.22;5115090;28;20216;-68
2023/08/27 09:58:56;;;;;;;3.25;1.10;;;;;;;19.90;100.00;96094.47;5115180;28;20209;-64
2023/08/27 10:01:25;;;;;;;2.55;1.65;;;;;;;19.86;100.00;96096.78;5114423;28;20698;-66
2023/08/27 10:03:53;;;;;;;1.50;1.40;;;;;;;19.83;100.00;96096.38;5114816;28;20216;-66
2023/08/27 10:06:20;;;;;;;1.55;1.45;;;;;;;19.90;100.00;96104.38;5114412;28;20216;-66
2023/08/27 10:08:50;;;;;;;1.85;1.27;;;;;;;19.89;100.00;96114.28;5114423;28;20204;-66
2023/08/27 10:11:17;;;;;;;1.58;1.48;;;;;;;19.81;100.00;96104.63;5115016;28;20291;-65
2023/08/27 10:13:45;;;;;;;1.73;1.63;;;;;;;19.76;100.00;96101.78;5114238;28;20205;-64
2023/08/27 10:16:13;;;;;;;4.13;1.40;;;;;;;19.73;100.00;96112.91;5114534;28;20225;-68
2023/08/27 10:18:40;;;;;;;1.52;1.42;;;;;;;19.66;100.00;96119.38;5114578;28;20216;-64
2023/08/27 10:21:07;;;;;;;1.50;1.45;;;;;;;19.57;100.00;96126.81;5113682;28;20225;-64
2023/08/27 10:23:34;;;;;;;1.95;1.73;;;;;;;19.60;100.00;96129.06;5114121;28;20479;-64
2023/08/27 10:26:02;;;;;;;1.48;1.38;;;;;;;19.52;100.00;96142.69;5113298;28;20201;-66
2023/08/27 10:28:28;;;;;;;1.17;1.05;;;;;;;19.46;100.00;96127.47;5113908;28;20231;-66
2023/08/27 10:30:58;;;;;;;1.45;0.88;;;;;;;19.47;100.00;96129.13;5115101;28;20193;-64
2023/08/27 10:33:25;;;;;;;1.25;1.15;;;;;;;19.45;100.00;96133.84;5124160;28;20243;-64
2023/08/27 10:35:52;;;;;;;1.10;1.10;;;;;;;19.40;100.00;96128.28;5112808;28;20722;-65
2023/08/27 10:38:22;;;;;;;1.38;1.27;;;;;;;19.40;100.00;96125.59;5113504;28;20209;-66
2023/08/27 10:40:48;;;;;;;1.15;1.05;;;;;;;19.43;100.00;96133.25;5112759;28;20204;-64
2023/08/27 10:43:18;;;;;;;1.83;1.45;;;;;;;19.48;100.00;96130.78;5113128;28;20516;-66
2023/08/27 10:45:44;;;;;;;3.47;1.75;;;;;;;19.53;100.00;96143.53;5113932;28;20210;-65
2023/08/27 10:48:26;;;;;;;2.08;1.20;;;;;;;19.53;100.00;96130.13;5113897;28;20201;-65
2023/08/27 10:50:58;;;;;;;1.42;1.30;;;;;;;19.54;100.00;96137.13;5113371;28;20197;-64
2023/08/27 10:53:25;;;;;;;1.20;1.10;;;;;;;19.52;100.00;96131.97;5113202;28;20651;-66
2023/08/27 10:55:53;;;;;;;1.48;1.38;;;;;;;19.50;100.00;96134.06;5113364;28;20652;-66
2023/08/27 10:58:21;;;;;;;1.20;1.20;;;;;;;19.41;100.00;96134.47;5113638;28;20197;-65
2023/08/27 11:00:58;;;;;;;1.75;1.15;;;;;;;19.50;100.00;96120.66;5113374;28;20205;-66
2023/08/27 11:03:26;;;;;;;1.58;1.20;;;;;;;19.46;100.00;96124.78;5113159;28;20200;-64
2023/08/27 11:06:13;;;;;;;1.25;1.15;;;;;;;19.46;100.00;96127.47;5112791;28;20228;-65
2023/08/27 11:08:41;;;;;;;1.98;1.20;;;;;;;19.43;100.00;96114.47;5112408;28;20239;-65
2023/08/27 11:11:12;;;;;;;1.40;1.30;;;;;;;19.43;100.00;96106.44;5112282;28;20200;-65
2023/08/27 11:13:41;;;;;;;1.42;1.33;;;;;;;19.48;100.00;96098.59;5112741;28;20519;-65
2023/08/27 11:16:13;;;;;;;1.15;1.08;;;;;;;19.50;100.00;96095.69;5112265;28;20221;-64
2023/08/27 11:18:50;;;;;;;1.40;1.30;;;;;;;19.58;100.00;96096.28;5094190;28;20309;-63
2023/08/27 11:21:21;;;;;;;1.35;1.25;;;;;;;19.60;100.00;96091.50;5111984;28;20209;-67
2023/08/27 11:24:15;;;;;;;1.00;1.00;;;;;;;19.66;100.00;96089.84;5112013;28;20205;-65
2023/08/27 11:26:42;;;;;;;2.80;1.40;;;;;;;19.73;100.00;96086.09;5112140;28;20239;-64